Greenspond, Canada
Current Conditions -  °F | °C
As of 6:00 AM on Friday 24 Oct 2014 (Local Time) from CYQX Reporting Station
Overcast Overcast  
Wind Chill: 33°   Ceiling: 100
Heat Index: 37°   Visibility: 10mi
Dew Point: 37°   Wind: 6mph
Humidity: 100%   Direction: 120°ESE
Pressure: 30.07"   Gusts: NA
Location:  49.05°N, 53.58°W
Report Text: CYQX 240800Z 12005KT 10SM BKN001 BKN190 OVC250 03/03 A3007 RMK SF5AC1CI2 SLP186
Loading
Personal Weather Stations






























Interactive Weather Map New forecast layout! Learn more

10-Day Weather Forecast

Advertisements
Track Severe Weather on mobile